createdAt,value
2022-11-29T00:09:14.268Z,6.50
2022-11-29T00:19:17.784Z,6.40
2022-11-29T00:29:19.743Z,6.40
2022-11-29T00:39:23.009Z,6.60
2022-11-29T00:49:24.971Z,6.90
2022-11-29T00:59:28.272Z,7.10
2022-11-29T01:09:30.305Z,7.30
2022-11-29T01:19:33.648Z,7.40
2022-11-29T01:29:35.580Z,7.40
2022-11-29T01:39:39.200Z,7.40
2022-11-29T01:49:44.125Z,7.50
2022-11-29T01:59:50.482Z,7.60
2022-11-29T02:09:52.409Z,7.60
2022-11-29T02:20:21.768Z,7.60
2022-11-29T02:30:50.183Z,7.70
2022-11-29T02:41:10.788Z,7.80
2022-11-29T02:51:17.594Z,7.80
2022-11-29T03:01:26.758Z,7.90
2022-11-29T03:11:36.255Z,7.80
2022-11-29T03:21:51.584Z,7.80
2022-11-29T03:32:00.391Z,7.70
2022-11-29T03:42:07.893Z,7.70
2022-11-29T03:52:15.801Z,7.70
2022-11-29T04:02:54.784Z,7.70
2022-11-29T04:13:26.214Z,7.70
2022-11-29T04:23:57.393Z,7.70
2022-11-29T04:34:34.674Z,7.80
2022-11-29T04:44:55.455Z,7.90
2022-11-29T04:55:04.519Z,7.80
2022-11-29T05:05:21.614Z,7.80
2022-11-29T05:15:46.666Z,7.60
2022-11-29T05:25:56.403Z,7.70
2022-11-29T05:36:10.652Z,7.60
2022-11-29T05:46:21.936Z,7.50
2022-11-29T05:56:34.059Z,7.40
2022-11-29T06:06:43.391Z,7.40
2022-11-29T06:17:17.915Z,7.50
2022-11-29T06:27:42.061Z,7.40
2022-11-29T06:37:48.112Z,7.40
2022-11-29T06:47:57.872Z,7.40
2022-11-29T06:58:10.207Z,7.40
2022-11-29T07:08:16.520Z,7.30
2022-11-29T07:18:31.174Z,7.30
2022-11-29T07:28:45.867Z,7.30
2022-11-29T07:50:14.421Z,7.20
2022-11-29T08:00:17.774Z,7.30
2022-11-29T08:10:21.335Z,7.30
2022-11-29T08:20:23.290Z,7.10
2022-11-29T08:30:26.597Z,7.20
2022-11-29T08:40:28.522Z,7.10
2022-11-29T08:50:31.820Z,7.00
2022-11-29T09:00:34.821Z,7.30
2022-11-29T09:10:39.830Z,7.30
2022-11-29T09:20:43.321Z,7.40
2022-11-29T09:30:46.671Z,7.40
2022-11-29T09:40:53.339Z,7.50
2022-11-29T09:51:07.302Z,7.60
2022-11-29T10:01:20.529Z,7.70
2022-11-29T10:11:29.448Z,7.70
2022-11-29T10:21:36.160Z,7.80
2022-11-29T10:31:41.555Z,7.80
2022-11-29T10:41:43.568Z,7.70
2022-11-29T10:51:47.295Z,7.90
2022-11-29T11:01:50.554Z,8.00
2022-11-29T11:11:56.423Z,7.90
2022-11-29T11:22:00.722Z,7.80
2022-11-29T11:32:05.177Z,7.80
2022-11-29T11:42:11.818Z,7.80
2022-11-29T11:52:21.597Z,7.70
2022-11-29T12:02:28.968Z,7.80
2022-11-29T12:12:35.959Z,7.70
2022-11-29T12:22:46.713Z,8.00
2022-11-29T12:33:05.970Z,7.70
2022-11-29T12:43:18.223Z,7.70
2022-11-29T12:53:38.822Z,7.80
2022-11-29T13:03:44.681Z,7.80
2022-11-29T13:13:51.445Z,7.90
2022-11-29T13:24:08.390Z,8.00
2022-11-29T13:34:19.735Z,8.00
2022-11-29T13:44:30.320Z,8.20
2022-11-29T13:54:33.959Z,8.10
2022-11-29T14:04:37.722Z,8.10
2022-11-29T14:14:50.801Z,8.10
2022-11-29T14:25:01.284Z,8.10
2022-11-29T14:35:16.876Z,8.20
2022-11-29T14:45:24.127Z,8.20
2022-11-29T14:55:32.875Z,8.10
2022-11-29T15:05:37.979Z,8.20
2022-11-29T15:16:13.768Z,8.20
2022-11-29T15:26:18.003Z,8.20
2022-11-29T15:36:23.128Z,8.20
2022-11-29T15:46:26.720Z,8.20
2022-11-29T15:56:37.275Z,8.20
2022-11-29T16:07:19.648Z,8.20
2022-11-29T16:17:25.867Z,8.10
2022-11-29T16:27:31.799Z,8.10
2022-11-29T16:37:39.500Z,8.10
2022-11-29T16:47:48.631Z,8.10
2022-11-29T16:57:51.943Z,8.10
2022-11-29T17:07:54.486Z,8.00
2022-11-29T17:17:57.895Z,8.20
2022-11-29T17:27:59.796Z,8.10
2022-11-29T17:38:03.126Z,8.10
2022-11-29T17:48:05.287Z,8.10
2022-11-29T17:58:46.858Z,8.10
2022-11-29T18:20:07.942Z,8.10
2022-11-29T18:30:10.730Z,8.20
2022-11-29T18:40:14.843Z,8.20
2022-11-29T18:50:17.150Z,8.00
2022-11-29T19:00:21.182Z,8.00
2022-11-29T19:10:23.103Z,8.00
2022-11-29T19:30:55.450Z,8.20
2022-11-29T19:40:57.398Z,8.20
2022-11-29T19:51:01.357Z,8.00
2022-11-29T20:01:07.763Z,8.10
2022-11-29T20:11:14.167Z,7.90
2022-11-29T20:21:18.770Z,8.00
2022-11-29T20:31:22.934Z,8.10
2022-11-29T20:41:31.740Z,8.00
2022-11-29T20:51:40.523Z,8.00
2022-11-29T21:01:42.454Z,8.00
2022-11-29T21:11:46.348Z,8.10
2022-11-29T21:22:01.060Z,8.10
2022-11-29T21:32:05.041Z,8.10
2022-11-29T21:42:07.052Z,8.10
2022-11-29T21:52:10.581Z,8.10
2022-11-29T22:02:12.624Z,8.20
2022-11-29T22:12:32.970Z,8.10
2022-11-29T22:22:36.436Z,8.10
2022-11-29T22:32:39.768Z,8.20
2022-11-29T22:42:41.685Z,8.10
2022-11-29T22:52:45.016Z,8.20
2022-11-29T23:02:46.928Z,8.30
2022-11-29T23:12:50.243Z,8.20
2022-11-29T23:22:52.174Z,8.20
2022-11-29T23:32:55.513Z,8.20
2022-11-29T23:42:57.427Z,8.20
2022-11-29T23:53:00.761Z,8.10
